sensor_id;sensor_type;location;lat;lon;timestamp;P1;durP1;ratioP1;P2;durP2;ratioP2
351;SDS011;164;50.784;6.496;2023-11-18T00:00:29;8.52;;;6.68;;
351;SDS011;164;50.784;6.496;2023-11-18T00:02:56;7.65;;;6.93;;
351;SDS011;164;50.784;6.496;2023-11-18T00:05:24;8.70;;;6.15;;
351;SDS011;164;50.784;6.496;2023-11-18T00:07:51;12.55;;;8.10;;
351;SDS011;164;50.784;6.496;2023-11-18T00:10:19;8.90;;;7.10;;
351;SDS011;164;50.784;6.496;2023-11-18T00:12:48;9.48;;;7.53;;
351;SDS011;164;50.784;6.496;2023-11-18T00:15:15;8.40;;;6.68;;
351;SDS011;164;50.784;6.496;2023-11-18T00:17:43;7.47;;;6.03;;
351;SDS011;164;50.784;6.496;2023-11-18T00:20:10;8.25;;;6.38;;
351;SDS011;164;50.784;6.496;2023-11-18T00:22:39;7.20;;;6.57;;
351;SDS011;164;50.784;6.496;2023-11-18T00:25:07;9.70;;;6.57;;
351;SDS011;164;50.784;6.496;2023-11-18T00:27:34;8.50;;;6.72;;
351;SDS011;164;50.784;6.496;2023-11-18T00:30:04;8.25;;;6.72;;
351;SDS011;164;50.784;6.496;2023-11-18T00:32:33;8.23;;;7.60;;
351;SDS011;164;50.784;6.496;2023-11-18T00:35:01;9.45;;;6.15;;
351;SDS011;164;50.784;6.496;2023-11-18T00:37:29;8.05;;;6.80;;
351;SDS011;164;50.784;6.496;2023-11-18T00:39:57;7.93;;;6.75;;
351;SDS011;164;50.784;6.496;2023-11-18T00:42:24;7.53;;;6.45;;
351;SDS011;164;50.784;6.496;2023-11-18T00:44:51;8.18;;;6.15;;
351;SDS011;164;50.784;6.496;2023-11-18T00:47:21;9.00;;;6.82;;
351;SDS011;164;50.784;6.496;2023-11-18T00:49:49;8.98;;;6.47;;
351;SDS011;164;50.784;6.496;2023-11-18T00:52:17;6.88;;;6.47;;
351;SDS011;164;50.784;6.496;2023-11-18T00:54:44;6.93;;;5.70;;
351;SDS011;164;50.784;6.496;2023-11-18T00:57:12;6.85;;;6.03;;
351;SDS011;164;50.784;6.496;2023-11-18T00:59:41;8.55;;;6.20;;
351;SDS011;164;50.784;6.496;2023-11-18T01:02:09;8.32;;;6.25;;
351;SDS011;164;50.784;6.496;2023-11-18T01:04:37;6.28;;;5.18;;
351;SDS011;164;50.784;6.496;2023-11-18T01:07:05;8.75;;;6.72;;
351;SDS011;164;50.784;6.496;2023-11-18T01:09:34;6.72;;;5.20;;
351;SDS011;164;50.784;6.496;2023-11-18T01:12:04;7.53;;;6.50;;
351;SDS011;164;50.784;6.496;2023-11-18T01:14:34;5.55;;;5.13;;
351;SDS011;164;50.784;6.496;2023-11-18T01:17:02;9.25;;;7.00;;
351;SDS011;164;50.784;6.496;2023-11-18T01:19:29;6.10;;;5.13;;
351;SDS011;164;50.784;6.496;2023-11-18T01:21:58;8.20;;;6.38;;
351;SDS011;164;50.784;6.496;2023-11-18T01:24:25;11.93;;;7.00;;
351;SDS011;164;50.784;6.496;2023-11-18T01:26:53;6.15;;;5.85;;
351;SDS011;164;50.784;6.496;2023-11-18T01:29:20;6.78;;;6.20;;
351;SDS011;164;50.784;6.496;2023-11-18T01:31:49;6.10;;;5.18;;
351;SDS011;164;50.784;6.496;2023-11-18T01:34:17;10.60;;;7.38;;
351;SDS011;164;50.784;6.496;2023-11-18T01:36:46;7.32;;;6.95;;
351;SDS011;164;50.784;6.496;2023-11-18T01:39:15;9.35;;;8.30;;
351;SDS011;164;50.784;6.496;2023-11-18T01:41:44;7.13;;;5.88;;
351;SDS011;164;50.784;6.496;2023-11-18T01:44:11;8.00;;;6.40;;
351;SDS011;164;50.784;6.496;2023-11-18T01:46:40;7.53;;;5.72;;
351;SDS011;164;50.784;6.496;2023-11-18T01:49:10;9.85;;;7.13;;
351;SDS011;164;50.784;6.496;2023-11-18T01:51:39;7.88;;;6.57;;
351;SDS011;164;50.784;6.496;2023-11-18T01:54:08;9.20;;;6.95;;
351;SDS011;164;50.784;6.496;2023-11-18T01:56:41;11.20;;;7.05;;
351;SDS011;164;50.784;6.496;2023-11-18T01:59:08;10.15;;;7.75;;
351;SDS011;164;50.784;6.496;2023-11-18T02:01:43;7.75;;;5.75;;
351;SDS011;164;50.784;6.496;2023-11-18T02:04:11;5.85;;;5.60;;
351;SDS011;164;50.784;6.496;2023-11-18T02:06:38;8.75;;;6.65;;
351;SDS011;164;50.784;6.496;2023-11-18T02:09:05;7.68;;;6.95;;
351;SDS011;164;50.784;6.496;2023-11-18T02:11:36;8.25;;;6.72;;
351;SDS011;164;50.784;6.496;2023-11-18T02:14:09;10.35;;;7.72;;
351;SDS011;164;50.784;6.496;2023-11-18T02:16:41;8.13;;;6.45;;
351;SDS011;164;50.784;6.496;2023-11-18T02:19:20;10.38;;;7.05;;
351;SDS011;164;50.784;6.496;2023-11-18T02:21:48;9.98;;;8.20;;
351;SDS011;164;50.784;6.496;2023-11-18T02:24:25;8.55;;;6.60;;
351;SDS011;164;50.784;6.496;2023-11-18T02:26:56;8.05;;;6.93;;
351;SDS011;164;50.784;6.496;2023-11-18T02:29:23;8.88;;;6.55;;
351;SDS011;164;50.784;6.496;2023-11-18T02:31:52;9.23;;;6.65;;
351;SDS011;164;50.784;6.496;2023-11-18T02:34:22;8.85;;;6.95;;
351;SDS011;164;50.784;6.496;2023-11-18T02:36:51;9.40;;;7.80;;
351;SDS011;164;50.784;6.496;2023-11-18T02:39:20;7.18;;;5.45;;
351;SDS011;164;50.784;6.496;2023-11-18T02:41:48;10.80;;;6.78;;
351;SDS011;164;50.784;6.496;2023-11-18T02:44:20;8.88;;;7.38;;
351;SDS011;164;50.784;6.496;2023-11-18T02:46:50;8.30;;;6.95;;
351;SDS011;164;50.784;6.496;2023-11-18T02:49:17;7.07;;;5.15;;
351;SDS011;164;50.784;6.496;2023-11-18T02:51:45;9.30;;;7.13;;
351;SDS011;164;50.784;6.496;2023-11-18T02:54:13;9.32;;;7.15;;
351;SDS011;164;50.784;6.496;2023-11-18T02:56:41;7.30;;;6.03;;
351;SDS011;164;50.784;6.496;2023-11-18T02:59:08;8.27;;;5.95;;
351;SDS011;164;50.784;6.496;2023-11-18T03:01:37;7.85;;;6.03;;
351;SDS011;164;50.784;6.496;2023-11-18T03:04:05;8.70;;;7.00;;
351;SDS011;164;50.784;6.496;2023-11-18T03:06:33;7.75;;;6.57;;
351;SDS011;164;50.784;6.496;2023-11-18T03:09:01;7.70;;;6.78;;
351;SDS011;164;50.784;6.496;2023-11-18T03:11:32;14.10;;;6.45;;
351;SDS011;164;50.784;6.496;2023-11-18T03:13:59;8.27;;;6.93;;
351;SDS011;164;50.784;6.496;2023-11-18T03:16:26;7.80;;;5.78;;
351;SDS011;164;50.784;6.496;2023-11-18T03:18:55;8.20;;;6.72;;
351;SDS011;164;50.784;6.496;2023-11-18T03:21:24;8.80;;;6.13;;
351;SDS011;164;50.784;6.496;2023-11-18T03:23:52;8.38;;;7.35;;
351;SDS011;164;50.784;6.496;2023-11-18T03:26:19;6.78;;;5.63;;
351;SDS011;164;50.784;6.496;2023-11-18T03:28:47;5.93;;;5.05;;
351;SDS011;164;50.784;6.496;2023-11-18T03:31:14;6.55;;;6.20;;
351;SDS011;164;50.784;6.496;2023-11-18T03:33:42;8.10;;;6.30;;
351;SDS011;164;50.784;6.496;2023-11-18T03:36:10;8.35;;;7.13;;
351;SDS011;164;50.784;6.496;2023-11-18T03:38:38;7.18;;;4.93;;
351;SDS011;164;50.784;6.496;2023-11-18T03:41:05;7.63;;;6.80;;
351;SDS011;164;50.784;6.496;2023-11-18T03:43:33;7.32;;;5.45;;
351;SDS011;164;50.784;6.496;2023-11-18T03:46:01;6.80;;;5.80;;
351;SDS011;164;50.784;6.496;2023-11-18T03:48:28;8.10;;;5.38;;
351;SDS011;164;50.784;6.496;2023-11-18T03:50:55;10.02;;;6.10;;
351;SDS011;164;50.784;6.496;2023-11-18T03:53:24;8.13;;;6.95;;
351;SDS011;164;50.784;6.496;2023-11-18T03:55:51;7.80;;;6.05;;
351;SDS011;164;50.784;6.496;2023-11-18T03:58:18;5.53;;;5.25;;
351;SDS011;164;50.784;6.496;2023-11-18T04:00:45;7.60;;;5.93;;
351;SDS011;164;50.784;6.496;2023-11-18T04:03:13;8.90;;;5.60;;
351;SDS011;164;50.784;6.496;2023-11-18T04:05:40;6.93;;;5.60;;
351;SDS011;164;50.784;6.496;2023-11-18T04:08:07;6.38;;;5.40;;
351;SDS011;164;50.784;6.496;2023-11-18T04:10:37;7.28;;;6.40;;
351;SDS011;164;50.784;6.496;2023-11-18T04:13:05;12.13;;;5.45;;
351;SDS011;164;50.784;6.496;2023-11-18T04:15:32;6.20;;;4.97;;
351;SDS011;164;50.784;6.496;2023-11-18T04:18:00;6.22;;;5.43;;
351;SDS011;164;50.784;6.496;2023-11-18T04:20:27;6.18;;;4.65;;
351;SDS011;164;50.784;6.496;2023-11-18T04:22:55;7.78;;;5.53;;
351;SDS011;164;50.784;6.496;2023-11-18T04:25:22;8.27;;;6.05;;
351;SDS011;164;50.784;6.496;2023-11-18T04:27:51;4.57;;;4.28;;
351;SDS011;164;50.784;6.496;2023-11-18T04:30:19;6.75;;;5.00;;
351;SDS011;164;50.784;6.496;2023-11-18T04:32:46;6.80;;;4.68;;
351;SDS011;164;50.784;6.496;2023-11-18T04:35:13;6.30;;;4.80;;
351;SDS011;164;50.784;6.496;2023-11-18T04:43:23;4.38;;;4.00;;
351;SDS011;164;50.784;6.496;2023-11-18T04:45:50;6.03;;;4.88;;
351;SDS011;164;50.784;6.496;2023-11-18T04:48:17;6.30;;;4.25;;
351;SDS011;164;50.784;6.496;2023-11-18T04:50:46;4.88;;;3.47;;
351;SDS011;164;50.784;6.496;2023-11-18T04:53:13;6.88;;;4.22;;
351;SDS011;164;50.784;6.496;2023-11-18T04:55:41;10.40;;;4.40;;
351;SDS011;164;50.784;6.496;2023-11-18T04:58:08;6.72;;;4.38;;
351;SDS011;164;50.784;6.496;2023-11-18T05:00:37;5.45;;;4.05;;
351;SDS011;164;50.784;6.496;2023-11-18T05:03:04;4.00;;;3.88;;
351;SDS011;164;50.784;6.496;2023-11-18T05:05:34;5.32;;;3.90;;
351;SDS011;164;50.784;6.496;2023-11-18T05:08:03;6.05;;;4.30;;
351;SDS011;164;50.784;6.496;2023-11-18T05:10:31;4.30;;;3.67;;
351;SDS011;164;50.784;6.496;2023-11-18T05:12:59;3.65;;;3.50;;
351;SDS011;164;50.784;6.496;2023-11-18T05:15:26;4.20;;;3.75;;
351;SDS011;164;50.784;6.496;2023-11-18T05:17:56;3.90;;;3.63;;
351;SDS011;164;50.784;6.496;2023-11-18T05:20:23;3.45;;;3.13;;
351;SDS011;164;50.784;6.496;2023-11-18T05:22:50;7.38;;;2.65;;
351;SDS011;164;50.784;6.496;2023-11-18T05:25:17;3.00;;;2.42;;
351;SDS011;164;50.784;6.496;2023-11-18T05:27:45;3.28;;;2.70;;
351;SDS011;164;50.784;6.496;2023-11-18T05:30:12;4.18;;;3.97;;
351;SDS011;164;50.784;6.496;2023-11-18T05:32:39;4.40;;;3.25;;
351;SDS011;164;50.784;6.496;2023-11-18T05:35:08;5.63;;;3.35;;
351;SDS011;164;50.784;6.496;2023-11-18T05:37:37;3.92;;;2.85;;
351;SDS011;164;50.784;6.496;2023-11-18T05:40:06;3.88;;;2.25;;
351;SDS011;164;50.784;6.496;2023-11-18T05:42:35;2.92;;;2.65;;
351;SDS011;164;50.784;6.496;2023-11-18T05:45:02;3.25;;;3.05;;
351;SDS011;164;50.784;6.496;2023-11-18T05:47:29;2.60;;;2.40;;
351;SDS011;164;50.784;6.496;2023-11-18T05:49:57;3.15;;;2.55;;
351;SDS011;164;50.784;6.496;2023-11-18T05:52:26;3.88;;;2.25;;
351;SDS011;164;50.784;6.496;2023-11-18T05:54:53;4.63;;;2.42;;
351;SDS011;164;50.784;6.496;2023-11-18T05:57:21;3.38;;;2.60;;
351;SDS011;164;50.784;6.496;2023-11-18T05:59:48;1.73;;;1.63;;
351;SDS011;164;50.784;6.496;2023-11-18T06:02:15;2.58;;;2.38;;
351;SDS011;164;50.784;6.496;2023-11-18T06:04:44;2.28;;;1.50;;
351;SDS011;164;50.784;6.496;2023-11-18T06:07:11;2.53;;;2.33;;
351;SDS011;164;50.784;6.496;2023-11-18T06:09:41;3.00;;;2.75;;
351;SDS011;164;50.784;6.496;2023-11-18T06:12:08;3.28;;;2.30;;
351;SDS011;164;50.784;6.496;2023-11-18T06:14:36;2.40;;;2.03;;
351;SDS011;164;50.784;6.496;2023-11-18T06:17:03;2.38;;;2.17;;
351;SDS011;164;50.784;6.496;2023-11-18T06:19:32;6.10;;;2.38;;
351;SDS011;164;50.784;6.496;2023-11-18T06:22:00;3.60;;;2.85;;
351;SDS011;164;50.784;6.496;2023-11-18T06:24:27;2.42;;;2.20;;
351;SDS011;164;50.784;6.496;2023-11-18T06:26:55;2.65;;;2.10;;
351;SDS011;164;50.784;6.496;2023-11-18T06:29:23;3.13;;;2.47;;
351;SDS011;164;50.784;6.496;2023-11-18T06:31:50;2.20;;;2.00;;
351;SDS011;164;50.784;6.496;2023-11-18T06:34:17;4.97;;;2.17;;
351;SDS011;164;50.784;6.496;2023-11-18T06:36:46;3.10;;;2.35;;
351;SDS011;164;50.784;6.496;2023-11-18T06:39:13;4.18;;;2.08;;
351;SDS011;164;50.784;6.496;2023-11-18T06:41:41;2.72;;;2.13;;
351;SDS011;164;50.784;6.496;2023-11-18T06:44:14;2.70;;;1.70;;
351;SDS011;164;50.784;6.496;2023-11-18T06:46:43;2.40;;;2.20;;
351;SDS011;164;50.784;6.496;2023-11-18T06:49:11;2.40;;;1.98;;
351;SDS011;164;50.784;6.496;2023-11-18T06:51:40;2.75;;;1.50;;
351;SDS011;164;50.784;6.496;2023-11-18T06:54:08;2.08;;;1.05;;
351;SDS011;164;50.784;6.496;2023-11-18T06:56:35;2.70;;;2.10;;
351;SDS011;164;50.784;6.496;2023-11-18T06:59:04;1.88;;;1.83;;
351;SDS011;164;50.784;6.496;2023-11-18T07:01:33;2.28;;;2.13;;
351;SDS011;164;50.784;6.496;2023-11-18T07:04:00;2.55;;;2.10;;
351;SDS011;164;50.784;6.496;2023-11-18T07:06:28;1.63;;;1.52;;
351;SDS011;164;50.784;6.496;2023-11-18T07:08:56;3.47;;;3.20;;
351;SDS011;164;50.784;6.496;2023-11-18T07:11:25;2.67;;;2.50;;
351;SDS011;164;50.784;6.496;2023-11-18T07:13:52;2.67;;;2.50;;
351;SDS011;164;50.784;6.496;2023-11-18T07:16:22;3.58;;;2.30;;
351;SDS011;164;50.784;6.496;2023-11-18T07:18:50;2.00;;;1.67;;
351;SDS011;164;50.784;6.496;2023-11-18T07:21:18;1.88;;;1.40;;
351;SDS011;164;50.784;6.496;2023-11-18T07:23:45;0.95;;;0.90;;
351;SDS011;164;50.784;6.496;2023-11-18T07:26:12;1.88;;;1.10;;
351;SDS011;164;50.784;6.496;2023-11-18T07:28:40;2.20;;;2.00;;
351;SDS011;164;50.784;6.496;2023-11-18T07:31:09;4.95;;;2.78;;
351;SDS011;164;50.784;6.496;2023-11-18T07:33:36;2.03;;;1.77;;
351;SDS011;164;50.784;6.496;2023-11-18T07:36:05;2.00;;;1.50;;
351;SDS011;164;50.784;6.496;2023-11-18T07:38:36;3.80;;;2.67;;
351;SDS011;164;50.784;6.496;2023-11-18T07:41:03;3.97;;;3.63;;
351;SDS011;164;50.784;6.496;2023-11-18T07:43:33;3.45;;;2.30;;
351;SDS011;164;50.784;6.496;2023-11-18T07:46:01;3.10;;;2.53;;
351;SDS011;164;50.784;6.496;2023-11-18T07:48:28;2.20;;;1.55;;
351;SDS011;164;50.784;6.496;2023-11-18T07:50:56;2.78;;;1.67;;
351;SDS011;164;50.784;6.496;2023-11-18T07:53:25;3.33;;;2.80;;
351;SDS011;164;50.784;6.496;2023-11-18T07:55:54;2.88;;;2.40;;
351;SDS011;164;50.784;6.496;2023-11-18T07:58:21;1.40;;;1.30;;
351;SDS011;164;50.784;6.496;2023-11-18T08:00:49;1.85;;;1.23;;
351;SDS011;164;50.784;6.496;2023-11-18T08:03:16;4.85;;;1.05;;
351;SDS011;164;50.784;6.496;2023-11-18T08:05:44;0.90;;;0.90;;
351;SDS011;164;50.784;6.496;2023-11-18T08:08:11;1.25;;;1.13;;
351;SDS011;164;50.784;6.496;2023-11-18T08:10:41;1.35;;;0.93;;
351;SDS011;164;50.784;6.496;2023-11-18T08:13:09;1.90;;;1.23;;
351;SDS011;164;50.784;6.496;2023-11-18T08:15:38;5.75;;;2.35;;
351;SDS011;164;50.784;6.496;2023-11-18T08:18:05;3.47;;;1.70;;
351;SDS011;164;50.784;6.496;2023-11-18T08:20:33;2.25;;;1.00;;
351;SDS011;164;50.784;6.496;2023-11-18T08:23:00;1.10;;;0.70;;
351;SDS011;164;50.784;6.496;2023-11-18T08:25:27;1.80;;;1.15;;
351;SDS011;164;50.784;6.496;2023-11-18T08:27:56;1.17;;;1.05;;
351;SDS011;164;50.784;6.496;2023-11-18T08:30:23;2.25;;;0.98;;
351;SDS011;164;50.784;6.496;2023-11-18T08:32:50;0.93;;;0.88;;
351;SDS011;164;50.784;6.496;2023-11-18T08:35:18;1.25;;;1.15;;
351;SDS011;164;50.784;6.496;2023-11-18T08:37:46;1.33;;;0.80;;
351;SDS011;164;50.784;6.496;2023-11-18T08:40:15;1.00;;;0.80;;
351;SDS011;164;50.784;6.496;2023-11-18T08:42:47;1.10;;;1.00;;
351;SDS011;164;50.784;6.496;2023-11-18T08:45:16;2.78;;;0.80;;
351;SDS011;164;50.784;6.496;2023-11-18T08:47:47;1.80;;;1.27;;
351;SDS011;164;50.784;6.496;2023-11-18T08:50:15;3.63;;;1.05;;
351;SDS011;164;50.784;6.496;2023-11-18T08:52:42;1.25;;;0.73;;
351;SDS011;164;50.784;6.496;2023-11-18T08:55:12;1.25;;;1.00;;
351;SDS011;164;50.784;6.496;2023-11-18T08:57:43;1.05;;;0.95;;
351;SDS011;164;50.784;6.496;2023-11-18T09:00:18;0.80;;;0.75;;
351;SDS011;164;50.784;6.496;2023-11-18T09:03:00;2.25;;;1.13;;
351;SDS011;164;50.784;6.496;2023-11-18T09:05:31;0.60;;;0.47;;
351;SDS011;164;50.784;6.496;2023-11-18T09:07:58;1.90;;;0.75;;
351;SDS011;164;50.784;6.496;2023-11-18T09:10:27;1.98;;;1.00;;
351;SDS011;164;50.784;6.496;2023-11-18T09:12:54;1.15;;;0.93;;
351;SDS011;164;50.784;6.496;2023-11-18T09:15:22;0.88;;;0.77;;
351;SDS011;164;50.784;6.496;2023-11-18T09:17:50;1.15;;;0.80;;
351;SDS011;164;50.784;6.496;2023-11-18T09:20:18;0.90;;;0.80;;
351;SDS011;164;50.784;6.496;2023-11-18T09:22:47;1.25;;;1.00;;
351;SDS011;164;50.784;6.496;2023-11-18T09:25:14;1.08;;;0.90;;
351;SDS011;164;50.784;6.496;2023-11-18T09:27:43;2.15;;;1.20;;
351;SDS011;164;50.784;6.496;2023-11-18T09:30:10;1.83;;;1.08;;
351;SDS011;164;50.784;6.496;2023-11-18T09:32:41;1.40;;;1.00;;
351;SDS011;164;50.784;6.496;2023-11-18T09:35:08;3.08;;;1.75;;
351;SDS011;164;50.784;6.496;2023-11-18T09:37:38;1.55;;;0.70;;
351;SDS011;164;50.784;6.496;2023-11-18T09:45:17;2.35;;;1.30;;
351;SDS011;164;50.784;6.496;2023-11-18T09:47:46;1.25;;;0.63;;
351;SDS011;164;50.784;6.496;2023-11-18T09:50:15;0.82;;;0.77;;
351;SDS011;164;50.784;6.496;2023-11-18T09:52:47;3.38;;;1.40;;
351;SDS011;164;50.784;6.496;2023-11-18T09:55:21;1.45;;;0.90;;
351;SDS011;164;50.784;6.496;2023-11-18T09:57:55;1.58;;;0.90;;
351;SDS011;164;50.784;6.496;2023-11-18T10:00:24;1.38;;;1.10;;
351;SDS011;164;50.784;6.496;2023-11-18T10:02:59;1.10;;;1.10;;
351;SDS011;164;50.784;6.496;2023-11-18T10:05:26;1.33;;;1.33;;
351;SDS011;164;50.784;6.496;2023-11-18T10:07:55;2.17;;;1.35;;
351;SDS011;164;50.784;6.496;2023-11-18T10:10:24;0.75;;;0.70;;
351;SDS011;164;50.784;6.496;2023-11-18T10:13:01;3.10;;;1.30;;
351;SDS011;164;50.784;6.496;2023-11-18T10:15:30;2.15;;;1.15;;
351;SDS011;164;50.784;6.496;2023-11-18T10:17:59;2.10;;;1.40;;
351;SDS011;164;50.784;6.496;2023-11-18T10:23:16;1.40;;;1.30;;
351;SDS011;164;50.784;6.496;2023-11-18T10:25:46;1.85;;;1.10;;
351;SDS011;164;50.784;6.496;2023-11-18T10:28:24;2.05;;;1.15;;
351;SDS011;164;50.784;6.496;2023-11-18T10:30:52;2.38;;;1.10;;
351;SDS011;164;50.784;6.496;2023-11-18T10:33:24;2.30;;;1.17;;
351;SDS011;164;50.784;6.496;2023-11-18T10:35:55;1.77;;;1.23;;
351;SDS011;164;50.784;6.496;2023-11-18T10:38:22;3.67;;;1.30;;
351;SDS011;164;50.784;6.496;2023-11-18T10:40:54;1.75;;;1.63;;
351;SDS011;164;50.784;6.496;2023-11-18T10:43:22;2.58;;;1.13;;
351;SDS011;164;50.784;6.496;2023-11-18T10:45:51;0.93;;;0.90;;
351;SDS011;164;50.784;6.496;2023-11-18T10:48:19;2.80;;;1.42;;
351;SDS011;164;50.784;6.496;2023-11-18T10:50:48;4.72;;;1.80;;
351;SDS011;164;50.784;6.496;2023-11-18T10:53:17;1.75;;;1.40;;
351;SDS011;164;50.784;6.496;2023-11-18T10:55:46;2.45;;;1.10;;
351;SDS011;164;50.784;6.496;2023-11-18T10:58:13;2.80;;;1.30;;
351;SDS011;164;50.784;6.496;2023-11-18T11:00:47;2.20;;;1.40;;
351;SDS011;164;50.784;6.496;2023-11-18T11:03:15;6.03;;;1.05;;
351;SDS011;164;50.784;6.496;2023-11-18T11:05:43;1.25;;;1.00;;
351;SDS011;164;50.784;6.496;2023-11-18T11:08:13;1.60;;;1.05;;
351;SDS011;164;50.784;6.496;2023-11-18T11:10:41;2.33;;;1.05;;
351;SDS011;164;50.784;6.496;2023-11-18T11:13:09;1.70;;;0.95;;
351;SDS011;164;50.784;6.496;2023-11-18T11:15:40;4.00;;;1.65;;
351;SDS011;164;50.784;6.496;2023-11-18T11:18:11;1.92;;;1.25;;
351;SDS011;164;50.784;6.496;2023-11-18T11:20:41;1.58;;;0.90;;
351;SDS011;164;50.784;6.496;2023-11-18T11:23:13;2.78;;;1.58;;
351;SDS011;164;50.784;6.496;2023-11-18T11:25:47;2.08;;;1.00;;
351;SDS011;164;50.784;6.496;2023-11-18T11:28:19;1.00;;;0.90;;
351;SDS011;164;50.784;6.496;2023-11-18T11:30:50;1.40;;;1.33;;
351;SDS011;164;50.784;6.496;2023-11-18T11:33:20;1.42;;;1.15;;
351;SDS011;164;50.784;6.496;2023-11-18T11:35:53;0.80;;;0.70;;
351;SDS011;164;50.784;6.496;2023-11-18T11:38:24;1.17;;;1.00;;
351;SDS011;164;50.784;6.496;2023-11-18T11:40:52;1.77;;;1.10;;
351;SDS011;164;50.784;6.496;2023-11-18T11:43:20;1.60;;;1.33;;
351;SDS011;164;50.784;6.496;2023-11-18T11:45:50;0.95;;;0.90;;
351;SDS011;164;50.784;6.496;2023-11-18T11:48:20;1.55;;;1.23;;
351;SDS011;164;50.784;6.496;2023-11-18T11:50:59;1.05;;;0.70;;
351;SDS011;164;50.784;6.496;2023-11-18T11:53:31;1.35;;;1.08;;
351;SDS011;164;50.784;6.496;2023-11-18T11:56:01;0.90;;;0.90;;
351;SDS011;164;50.784;6.496;2023-11-18T11:58:32;0.82;;;0.68;;
351;SDS011;164;50.784;6.496;2023-11-18T12:01:02;1.08;;;1.00;;
351;SDS011;164;50.784;6.496;2023-11-18T12:03:33;3.55;;;0.80;;
351;SDS011;164;50.784;6.496;2023-11-18T12:06:01;2.83;;;1.25;;
351;SDS011;164;50.784;6.496;2023-11-18T12:08:36;1.20;;;1.02;;
351;SDS011;164;50.784;6.496;2023-11-18T12:11:05;0.93;;;0.50;;
351;SDS011;164;50.784;6.496;2023-11-18T12:13:35;1.00;;;0.90;;
351;SDS011;164;50.784;6.496;2023-11-18T12:16:04;1.10;;;0.75;;
351;SDS011;164;50.784;6.496;2023-11-18T12:18:35;1.90;;;1.25;;
351;SDS011;164;50.784;6.496;2023-11-18T12:21:03;1.27;;;0.70;;
351;SDS011;164;50.784;6.496;2023-11-18T12:23:30;0.90;;;0.60;;
351;SDS011;164;50.784;6.496;2023-11-18T12:26:00;1.52;;;1.30;;
351;SDS011;164;50.784;6.496;2023-11-18T12:28:29;0.60;;;0.40;;
351;SDS011;164;50.784;6.496;2023-11-18T12:30:59;2.25;;;0.70;;
351;SDS011;164;50.784;6.496;2023-11-18T12:39:20;2.53;;;0.65;;
351;SDS011;164;50.784;6.496;2023-11-18T12:41:52;3.25;;;0.80;;
351;SDS011;164;50.784;6.496;2023-11-18T12:44:28;1.05;;;0.73;;
351;SDS011;164;50.784;6.496;2023-11-18T12:46:59;1.92;;;0.70;;
351;SDS011;164;50.784;6.496;2023-11-18T12:49:36;1.65;;;0.70;;
351;SDS011;164;50.784;6.496;2023-11-18T12:52:07;1.23;;;0.63;;
351;SDS011;164;50.784;6.496;2023-11-18T12:54:34;0.90;;;0.60;;
351;SDS011;164;50.784;6.496;2023-11-18T12:57:04;1.70;;;0.50;;
351;SDS011;164;50.784;6.496;2023-11-18T12:59:32;1.60;;;0.50;;
351;SDS011;164;50.784;6.496;2023-11-18T13:01:59;0.70;;;0.38;;
351;SDS011;164;50.784;6.496;2023-11-18T13:04:29;1.80;;;0.50;;
351;SDS011;164;50.784;6.496;2023-11-18T13:06:56;0.90;;;0.50;;
351;SDS011;164;50.784;6.496;2023-11-18T13:09:25;0.90;;;0.75;;
351;SDS011;164;50.784;6.496;2023-11-18T13:11:56;0.60;;;0.60;;
351;SDS011;164;50.784;6.496;2023-11-18T13:14:26;0.82;;;0.60;;
351;SDS011;164;50.784;6.496;2023-11-18T13:16:55;0.50;;;0.40;;
351;SDS011;164;50.784;6.496;2023-11-18T13:19:23;1.02;;;0.50;;
351;SDS011;164;50.784;6.496;2023-11-18T13:21:51;0.73;;;0.40;;
351;SDS011;164;50.784;6.496;2023-11-18T13:24:19;1.65;;;0.57;;
351;SDS011;164;50.784;6.496;2023-11-18T13:26:47;0.60;;;0.50;;
351;SDS011;164;50.784;6.496;2023-11-18T13:29:15;1.38;;;0.55;;
351;SDS011;164;50.784;6.496;2023-11-18T13:31:43;1.20;;;0.60;;
351;SDS011;164;50.784;6.496;2023-11-18T13:34:12;1.30;;;1.02;;
351;SDS011;164;50.784;6.496;2023-11-18T13:36:41;0.80;;;0.50;;
351;SDS011;164;50.784;6.496;2023-11-18T13:39:08;0.70;;;0.30;;
351;SDS011;164;50.784;6.496;2023-11-18T13:41:41;0.93;;;0.80;;
351;SDS011;164;50.784;6.496;2023-11-18T13:44:10;0.50;;;0.40;;
351;SDS011;164;50.784;6.496;2023-11-18T13:46:38;0.85;;;0.60;;
351;SDS011;164;50.784;6.496;2023-11-18T13:49:07;0.90;;;0.60;;
351;SDS011;164;50.784;6.496;2023-11-18T13:51:35;0.50;;;0.40;;
351;SDS011;164;50.784;6.496;2023-11-18T13:54:02;0.77;;;0.60;;
351;SDS011;164;50.784;6.496;2023-11-18T13:56:30;0.60;;;0.40;;
351;SDS011;164;50.784;6.496;2023-11-18T13:58:57;0.82;;;0.60;;
351;SDS011;164;50.784;6.496;2023-11-18T14:01:26;0.50;;;0.30;;
351;SDS011;164;50.784;6.496;2023-11-18T14:03:54;6.00;;;0.45;;
351;SDS011;164;50.784;6.496;2023-11-18T14:06:28;1.30;;;0.50;;
351;SDS011;164;50.784;6.496;2023-11-18T14:08:55;0.85;;;0.60;;
351;SDS011;164;50.784;6.496;2023-11-18T14:11:22;0.75;;;0.40;;
351;SDS011;164;50.784;6.496;2023-11-18T14:13:50;1.40;;;1.00;;
351;SDS011;164;50.784;6.496;2023-11-18T14:16:18;0.55;;;0.30;;
351;SDS011;164;50.784;6.496;2023-11-18T14:18:48;0.57;;;0.47;;
351;SDS011;164;50.784;6.496;2023-11-18T14:21:16;0.57;;;0.52;;
351;SDS011;164;50.784;6.496;2023-11-18T14:23:45;1.15;;;0.75;;
351;SDS011;164;50.784;6.496;2023-11-18T14:26:12;2.15;;;0.40;;
351;SDS011;164;50.784;6.496;2023-11-18T14:28:39;0.50;;;0.50;;
351;SDS011;164;50.784;6.496;2023-11-18T14:31:07;0.70;;;0.63;;
351;SDS011;164;50.784;6.496;2023-11-18T14:33:36;0.52;;;0.50;;
351;SDS011;164;50.784;6.496;2023-11-18T14:36:04;0.82;;;0.40;;
351;SDS011;164;50.784;6.496;2023-11-18T14:38:32;0.50;;;0.38;;
351;SDS011;164;50.784;6.496;2023-11-18T14:41:01;0.50;;;0.50;;
351;SDS011;164;50.784;6.496;2023-11-18T14:43:29;0.50;;;0.30;;
351;SDS011;164;50.784;6.496;2023-11-18T14:45:57;0.50;;;0.30;;
351;SDS011;164;50.784;6.496;2023-11-18T14:48:24;0.50;;;0.40;;
351;SDS011;164;50.784;6.496;2023-11-18T14:50:52;0.40;;;0.30;;
351;SDS011;164;50.784;6.496;2023-11-18T14:53:21;0.45;;;0.30;;
351;SDS011;164;50.784;6.496;2023-11-18T14:55:50;0.60;;;0.30;;
351;SDS011;164;50.784;6.496;2023-11-18T14:58:19;0.50;;;0.20;;
351;SDS011;164;50.784;6.496;2023-11-18T15:00:46;0.50;;;0.38;;
351;SDS011;164;50.784;6.496;2023-11-18T15:03:13;1.50;;;0.50;;
351;SDS011;164;50.784;6.496;2023-11-18T15:05:41;0.50;;;0.30;;
351;SDS011;164;50.784;6.496;2023-11-18T15:08:09;0.60;;;0.50;;
351;SDS011;164;50.784;6.496;2023-11-18T15:10:39;0.50;;;0.40;;
351;SDS011;164;50.784;6.496;2023-11-18T15:13:09;1.05;;;1.02;;
351;SDS011;164;50.784;6.496;2023-11-18T15:15:41;0.50;;;0.32;;
351;SDS011;164;50.784;6.496;2023-11-18T15:18:10;0.70;;;0.30;;
351;SDS011;164;50.784;6.496;2023-11-18T15:20:42;0.50;;;0.40;;
351;SDS011;164;50.784;6.496;2023-11-18T15:23:10;0.40;;;0.30;;
351;SDS011;164;50.784;6.496;2023-11-18T15:25:37;0.40;;;0.30;;
351;SDS011;164;50.784;6.496;2023-11-18T15:28:05;0.50;;;0.30;;
351;SDS011;164;50.784;6.496;2023-11-18T15:30:34;0.47;;;0.30;;
351;SDS011;164;50.784;6.496;2023-11-18T15:33:03;0.70;;;0.40;;
351;SDS011;164;50.784;6.496;2023-11-18T15:35:33;0.60;;;0.30;;
351;SDS011;164;50.784;6.496;2023-11-18T15:38:02;0.50;;;0.30;;
351;SDS011;164;50.784;6.496;2023-11-18T15:40:30;0.80;;;0.40;;
351;SDS011;164;50.784;6.496;2023-11-18T15:42:57;0.40;;;0.28;;
351;SDS011;164;50.784;6.496;2023-11-18T15:45:25;0.60;;;0.40;;
351;SDS011;164;50.784;6.496;2023-11-18T15:47:53;0.60;;;0.38;;
351;SDS011;164;50.784;6.496;2023-11-18T15:50:23;0.50;;;0.30;;
351;SDS011;164;50.784;6.496;2023-11-18T15:52:50;0.50;;;0.30;;
351;SDS011;164;50.784;6.496;2023-11-18T15:55:18;0.50;;;0.35;;
351;SDS011;164;50.784;6.496;2023-11-18T15:57:46;0.63;;;0.40;;
351;SDS011;164;50.784;6.496;2023-11-18T16:00:17;0.40;;;0.30;;
351;SDS011;164;50.784;6.496;2023-11-18T16:02:45;0.77;;;0.63;;
351;SDS011;164;50.784;6.496;2023-11-18T16:05:14;0.60;;;0.43;;
351;SDS011;164;50.784;6.496;2023-11-18T16:07:43;0.40;;;0.30;;
351;SDS011;164;50.784;6.496;2023-11-18T16:10:11;0.70;;;0.35;;
351;SDS011;164;50.784;6.496;2023-11-18T16:12:43;0.60;;;0.30;;